Time;durP1;ratioP1;P1;durP2;ratioP2;P2;SDS_P1;SDS_P2;PMS_P1;PMS_P2;Temp;Humidity;BMP_temperature;BMP_pressure;BME280_temperature;BME280_humidity;BME280_pressure;Samples;Min_cycle;Max_cycle;Signal;HPM_P1;HPM_P2
2023/01/22 00:02:19;;;;;;;8.93;4.80;;;;;;;6.90;95.70;94454.69;5107822;28;20552;-74
2023/01/22 00:04:49;;;;;;;13.68;4.25;;;;;;;6.83;95.98;94462.44;5106955;28;20285;-75
2023/01/22 00:07:18;;;;;;;11.20;5.78;;;;;;;6.82;96.36;94460.03;5106610;28;20230;-76
2023/01/22 00:09:48;;;;;;;14.90;6.03;;;;;;;6.92;95.30;94465.16;5107652;28;20292;-76
2023/01/22 00:12:15;;;;;;;15.18;7.38;;;;;;;6.93;96.43;94472.94;5093877;28;20206;-76
2023/01/22 00:14:42;;;;;;;19.50;8.30;;;;;;;6.83;96.56;94467.81;5108174;28;20233;-76
2023/01/22 00:17:09;;;;;;;17.98;7.63;;;;;;;6.95;96.70;94465.34;5108041;28;20293;-77
2023/01/22 00:19:37;;;;;;;13.27;7.50;;;;;;;6.79;97.92;94472.22;5108422;28;20201;-77
2023/01/22 00:22:04;;;;;;;20.13;8.50;;;;;;;6.82;99.88;94465.44;5108767;28;20262;-76
2023/01/22 00:24:30;;;;;;;16.63;7.22;;;;;;;6.93;99.76;94464.88;5107797;28;20225;-74
2023/01/22 00:26:57;;;;;;;17.55;7.38;;;;;;;6.97;99.74;94468.50;5107772;28;20185;-76
2023/01/22 00:29:24;;;;;;;15.63;7.38;;;;;;;7.02;99.52;94457.63;5108316;28;20644;-73
2023/01/22 00:31:51;;;;;;;12.05;7.15;;;;;;;7.00;99.74;94456.34;5108118;28;20661;-75
2023/01/22 00:34:17;;;;;;;18.38;8.55;;;;;;;6.99;100.00;94454.75;5108197;28;20217;-75
2023/01/22 00:36:45;;;;;;;12.52;6.95;;;;;;;7.06;100.00;94445.13;5108153;28;20229;-74
2023/01/22 00:39:12;;;;;;;17.45;7.38;;;;;;;7.00;100.00;94450.94;5108459;28;20202;-75
2023/01/22 00:41:40;;;;;;;15.88;9.00;;;;;;;6.99;100.00;94463.63;5108233;28;20204;-75
2023/01/22 00:44:07;;;;;;;15.23;7.57;;;;;;;6.91;100.00;94467.06;5107906;28;20836;-75
2023/01/22 00:46:36;;;;;;;17.10;7.55;;;;;;;6.93;100.00;94469.44;5108058;28;20579;-75
2023/01/22 00:49:03;;;;;;;14.55;7.65;;;;;;;6.69;100.00;94472.47;5108355;28;20210;-75
2023/01/22 00:51:32;;;;;;;15.15;7.65;;;;;;;6.43;100.00;94475.75;5094418;28;20206;-76
2023/01/22 00:54:00;;;;;;;12.85;6.95;;;;;;;6.39;100.00;94476.69;5098002;28;20206;-75
2023/01/22 00:56:27;;;;;;;13.70;6.97;;;;;;;6.45;100.00;94491.59;5106089;28;20897;-74
2023/01/22 00:58:53;;;;;;;16.38;7.75;;;;;;;6.42;100.00;94490.31;5112290;28;20205;-75
2023/01/22 01:01:20;;;;;;;16.55;7.43;;;;;;;6.42;100.00;94487.63;5111942;28;20799;-74
2023/01/22 01:03:47;;;;;;;16.90;8.80;;;;;;;6.42;100.00;94493.00;5112322;28;20205;-74
2023/01/22 01:06:16;;;;;;;17.73;8.73;;;;;;;6.47;100.00;94496.66;5112299;28;20198;-75
2023/01/22 01:08:43;;;;;;;15.80;8.02;;;;;;;6.54;100.00;94507.81;5112110;28;20550;-74
2023/01/22 01:11:14;;;;;;;10.52;5.93;;;;;;;6.52;100.00;94500.06;5107470;28;20214;-75
2023/01/22 01:13:42;;;;;;;10.77;5.55;;;;;;;6.50;100.00;94496.88;5102986;28;20205;-75
2023/01/22 01:16:13;;;;;;;13.63;6.13;;;;;;;6.54;100.00;94499.75;5112017;28;20207;-76
2023/01/22 01:18:40;;;;;;;8.45;5.13;;;;;;;6.58;100.00;94503.41;5111992;28;20679;-75
2023/01/22 01:21:07;;;;;;;13.40;6.13;;;;;;;6.51;100.00;94503.03;5111489;28;20549;-76
2023/01/22 01:23:35;;;;;;;9.85;5.60;;;;;;;6.42;100.00;94506.44;5111871;28;20737;-76
2023/01/22 01:26:05;;;;;;;15.82;6.72;;;;;;;6.47;100.00;94513.63;5091492;28;20218;-76
2023/01/22 01:28:34;;;;;;;14.10;6.75;;;;;;;6.58;100.00;94511.47;5104464;28;20660;-75
2023/01/22 01:31:02;;;;;;;13.07;6.57;;;;;;;6.40;100.00;94516.75;5111333;28;20231;-75
2023/01/22 01:33:29;;;;;;;14.73;7.05;;;;;;;6.54;100.00;94524.75;5111432;28;20221;-76
2023/01/22 01:36:00;;;;;;;14.73;7.20;;;;;;;6.56;100.00;94527.16;5112286;28;20198;-76
2023/01/22 01:38:27;;;;;;;13.98;6.05;;;;;;;6.59;100.00;94521.13;5097592;28;20234;-76
2023/01/22 01:40:54;;;;;;;13.23;6.68;;;;;;;6.55;100.00;94528.25;5111664;28;20201;-76
2023/01/22 01:43:21;;;;;;;12.00;5.93;;;;;;;6.60;100.00;94530.81;5111940;28;20206;-76
2023/01/22 01:45:49;;;;;;;17.27;6.25;;;;;;;6.59;100.00;94529.22;5110862;28;20619;-75
2023/01/22 01:48:25;;;;;;;10.55;6.00;;;;;;;6.53;100.00;94533.13;5110578;28;20243;-75
2023/01/22 01:50:56;;;;;;;10.80;5.50;;;;;;;6.61;100.00;94535.88;5111323;28;20672;-76
2023/01/22 01:53:23;;;;;;;8.80;4.97;;;;;;;6.34;100.00;94536.78;5111322;28;20198;-76
2023/01/22 01:55:50;;;;;;;12.32;5.35;;;;;;;6.15;100.00;94549.53;5110641;28;20291;-75
2023/01/22 01:58:20;;;;;;;9.80;5.75;;;;;;;6.03;100.00;94549.28;5111072;28;20749;-75
2023/01/22 02:00:51;;;;;;;11.35;5.68;;;;;;;6.07;100.00;94536.81;5110824;28;20201;-75
2023/01/22 02:03:19;;;;;;;9.32;5.55;;;;;;;6.09;100.00;94534.63;5111212;28;20205;-75
2023/01/22 02:05:45;;;;;;;10.23;6.10;;;;;;;6.13;100.00;94532.94;5111473;28;20201;-76
2023/01/22 02:08:13;;;;;;;9.90;5.07;;;;;;;6.13;100.00;94527.56;5110403;28;20668;-76
2023/01/22 02:10:40;;;;;;;12.90;5.90;;;;;;;6.18;100.00;94532.81;5110975;28;20647;-75
2023/01/22 02:13:12;;;;;;;9.52;5.60;;;;;;;6.23;100.00;94521.16;5110608;28;20201;-75
2023/01/22 02:15:40;;;;;;;11.73;5.63;;;;;;;6.22;100.00;94527.63;5110581;28;20205;-75
2023/01/22 02:18:08;;;;;;;10.88;6.10;;;;;;;6.18;100.00;94542.78;5110855;28;20225;-75
2023/01/22 02:20:37;;;;;;;10.85;5.40;;;;;;;6.17;100.00;94549.25;5110796;28;20251;-75
2023/01/22 02:23:04;;;;;;;11.15;5.55;;;;;;;6.13;100.00;94548.28;5102279;28;20625;-75
2023/01/22 02:25:32;;;;;;;9.52;5.65;;;;;;;6.00;100.00;94541.81;5092376;28;20210;-75
2023/01/22 02:27:59;;;;;;;10.63;5.32;;;;;;;6.08;100.00;94535.72;5102061;28;20733;-75
2023/01/22 02:30:26;;;;;;;8.98;4.35;;;;;;;6.07;100.00;94532.25;5105535;28;20637;-75
2023/01/22 02:32:53;;;;;;;11.27;5.40;;;;;;;6.18;100.00;94543.56;5110673;28;20198;-75
2023/01/22 02:35:20;;;;;;;10.77;6.25;;;;;;;6.31;100.00;94542.75;5110353;28;20320;-75
2023/01/22 02:37:48;;;;;;;12.85;6.00;;;;;;;6.21;100.00;94531.41;5110680;28;20229;-76
2023/01/22 02:40:15;;;;;;;9.00;4.53;;;;;;;6.03;100.00;94535.81;5110273;28;20206;-76
2023/01/22 02:42:41;;;;;;;10.68;5.38;;;;;;;6.09;100.00;94540.00;5110317;28;20205;-76
2023/01/22 02:45:09;;;;;;;9.98;4.95;;;;;;;5.96;100.00;94541.63;5110807;28;20310;-76
2023/01/22 02:47:36;;;;;;;9.93;4.88;;;;;;;5.92;100.00;94547.88;5110048;28;20270;-76
2023/01/22 02:50:04;;;;;;;8.20;4.28;;;;;;;5.82;100.00;94548.06;5110562;28;20206;-75
2023/01/22 02:52:31;;;;;;;7.03;4.10;;;;;;;5.86;100.00;94551.75;5109837;28;20846;-76
2023/01/22 02:54:59;;;;;;;7.25;4.38;;;;;;;5.89;100.00;94556.53;5109845;28;20213;-76
2023/01/22 02:57:26;;;;;;;7.28;4.18;;;;;;;5.94;100.00;94561.84;5110022;28;20340;-75
2023/01/22 02:59:52;;;;;;;8.40;3.85;;;;;;;5.95;100.00;94558.06;5109870;28;20270;-75
2023/01/22 03:02:19;;;;;;;10.32;4.05;;;;;;;6.02;100.00;94555.75;5109774;28;20206;-75
2023/01/22 03:04:48;;;;;;;7.22;3.50;;;;;;;6.09;100.00;94553.47;5109836;28;20281;-75
2023/01/22 03:07:16;;;;;;;5.97;3.10;;;;;;;6.20;100.00;94554.81;5110200;28;20207;-75
2023/01/22 03:09:43;;;;;;;7.80;3.63;;;;;;;6.06;100.00;94540.59;5110007;28;20194;-76
2023/01/22 03:12:11;;;;;;;7.18;3.45;;;;;;;5.80;100.00;94534.13;5109369;28;20246;-75
2023/01/22 03:22:53;;;;;;;9.23;4.07;;;;;;;5.81;100.00;94554.53;5096912;28;20293;-75
2023/01/22 03:25:19;;;;;;;9.50;4.50;;;;;;;5.80;100.00;94558.31;5108216;28;20242;-75
2023/01/22 03:30:28;;;;;;;5.65;3.33;;;;;;;5.72;100.00;94557.13;5104512;28;20208;-75
2023/01/22 03:32:55;;;;;;;6.68;3.85;;;;;;;5.69;100.00;94553.16;5108878;28;20273;-75
2023/01/22 03:35:22;;;;;;;4.70;2.45;;;;;;;5.79;100.00;94562.09;5108753;28;20233;-75
2023/01/22 03:37:48;;;;;;;7.47;4.35;;;;;;;5.63;100.00;94551.66;5109114;28;20724;-75
2023/01/22 03:40:16;;;;;;;5.80;3.03;;;;;;;5.63;100.00;94559.72;5109506;28;20791;-75
2023/01/22 03:42:42;;;;;;;4.82;2.38;;;;;;;5.63;100.00;94564.28;5109148;28;20201;-75
2023/01/22 03:45:11;;;;;;;5.75;2.10;;;;;;;5.60;100.00;94564.91;5108975;28;20703;-75
2023/01/22 03:47:38;;;;;;;3.22;1.85;;;;;;;5.50;100.00;94548.94;5108626;28;20254;-75
2023/01/22 03:50:06;;;;;;;4.57;1.90;;;;;;;5.44;100.00;94556.31;5109375;28;20285;-76
2023/01/22 03:52:34;;;;;;;5.68;2.28;;;;;;;5.45;100.00;94575.94;5109155;28;20266;-75
2023/01/22 03:55:00;;;;;;;4.57;1.88;;;;;;;5.43;100.00;94573.53;5109546;28;20284;-76
2023/01/22 03:57:27;;;;;;;2.28;1.60;;;;;;;5.38;100.00;94565.56;5108865;28;20622;-76
2023/01/22 03:59:54;;;;;;;3.90;1.95;;;;;;;5.33;100.00;94566.44;5109148;28;20231;-76
2023/01/22 04:02:22;;;;;;;4.03;2.15;;;;;;;5.26;100.00;94573.28;5108822;28;20246;-76
2023/01/22 04:04:49;;;;;;;3.95;2.20;;;;;;;5.31;100.00;94575.91;5108620;28;20209;-76
2023/01/22 04:07:16;;;;;;;7.35;2.20;;;;;;;5.17;100.00;94577.75;5108994;28;20241;-75
2023/01/22 04:09:42;;;;;;;3.25;2.10;;;;;;;5.27;100.00;94572.19;5108690;28;20201;-76
2023/01/22 04:12:09;;;;;;;3.53;2.15;;;;;;;5.21;100.00;94578.75;5108068;28;20271;-75
2023/01/22 04:14:36;;;;;;;4.30;2.55;;;;;;;5.21;100.00;94584.09;5108747;28;20750;-76
2023/01/22 04:17:03;;;;;;;4.50;2.40;;;;;;;5.24;100.00;94572.78;5108510;28;20202;-75
2023/01/22 04:19:31;;;;;;;3.22;2.05;;;;;;;5.23;100.00;94582.72;5108877;28;20213;-77
2023/01/22 04:21:58;;;;;;;5.03;3.08;;;;;;;5.18;100.00;94588.22;5108906;28;20266;-76
2023/01/22 04:24:25;;;;;;;4.50;2.30;;;;;;;5.29;100.00;94596.88;5108258;28;20212;-76
2023/01/22 04:26:52;;;;;;;3.92;2.13;;;;;;;5.38;100.00;94578.19;5108491;28;20250;-75
2023/01/22 04:29:19;;;;;;;5.22;2.80;;;;;;;5.32;100.00;94596.28;5108209;28;20201;-77
2023/01/22 04:31:46;;;;;;;4.00;2.42;;;;;;;5.22;100.00;94607.19;5108503;28;20201;-76
2023/01/22 04:34:13;;;;;;;5.95;2.80;;;;;;;5.23;100.00;94611.47;5108661;28;20237;-76
2023/01/22 04:36:41;;;;;;;5.03;2.88;;;;;;;5.08;100.00;94606.34;5109129;28;20278;-76
2023/01/22 04:39:08;;;;;;;5.43;2.95;;;;;;;5.11;100.00;94614.63;5108869;28;20221;-77
2023/01/22 04:41:35;;;;;;;3.53;2.42;;;;;;;5.16;100.00;94614.53;5109041;28;20281;-77
2023/01/22 04:44:02;;;;;;;4.38;2.35;;;;;;;5.15;100.00;94622.88;5108625;28;20301;-77
2023/01/22 04:46:28;;;;;;;6.00;2.70;;;;;;;5.09;100.00;94618.69;5108616;28;20680;-75
2023/01/22 04:48:55;;;;;;;7.22;2.67;;;;;;;5.21;100.00;94627.06;5108386;28;20198;-76
2023/01/22 04:51:22;;;;;;;8.60;2.78;;;;;;;5.21;100.00;94627.06;5108609;28;20247;-76
2023/01/22 04:53:50;;;;;;;3.22;1.85;;;;;;;5.31;100.00;94626.94;5108849;28;20548;-77
2023/01/22 04:56:17;;;;;;;3.20;2.17;;;;;;;5.38;100.00;94632.69;5108530;28;20205;-76
2023/01/22 04:58:44;;;;;;;6.50;3.17;;;;;;;5.29;100.00;94629.09;5108083;28;20225;-76
2023/01/22 05:01:11;;;;;;;4.30;2.72;;;;;;;5.37;100.00;94631.09;5108412;28;20205;-76
2023/01/22 05:03:38;;;;;;;4.20;2.40;;;;;;;5.21;100.00;94635.13;5108125;28;20266;-76
2023/01/22 05:06:05;;;;;;;17.98;4.22;;;;;;;5.06;100.00;94646.13;5108426;28;20585;-75
2023/01/22 05:08:32;;;;;;;4.20;2.53;;;;;;;5.06;100.00;94651.50;5108518;28;20250;-76
2023/01/22 05:11:02;;;;;;;12.15;4.00;;;;;;;5.03;100.00;94658.25;5108357;28;20202;-76
2023/01/22 05:13:28;;;;;;;7.45;3.08;;;;;;;5.06;100.00;94651.50;5108503;28;20274;-75
2023/01/22 05:15:55;;;;;;;14.70;6.70;;;;;;;5.02;100.00;94662.03;5104724;28;20206;-75
2023/01/22 05:18:22;;;;;;;8.48;4.43;;;;;;;4.93;100.00;94653.00;5098809;28;20233;-75
2023/01/22 05:20:49;;;;;;;9.65;5.25;;;;;;;4.87;100.00;94668.41;5108152;28;20201;-77
2023/01/22 05:23:16;;;;;;;6.75;3.95;;;;;;;4.86;100.00;94668.69;5108198;28;20246;-76
2023/01/22 05:25:47;;;;;;;7.43;3.53;;;;;;;4.90;100.00;94670.50;5095084;28;20294;-76
2023/01/22 05:28:15;;;;;;;7.07;3.70;;;;;;;4.93;100.00;94669.91;5108462;28;20247;-76
2023/01/22 05:30:42;;;;;;;9.73;4.28;;;;;;;5.04;100.00;94680.53;5108045;28;20197;-74
2023/01/22 05:33:09;;;;;;;7.50;3.25;;;;;;;4.72;100.00;94681.22;5107821;28;20198;-76
2023/01/22 05:35:35;;;;;;;4.35;2.70;;;;;;;4.74;100.00;94677.19;5107936;28;20374;-75
2023/01/22 05:38:02;;;;;;;5.70;3.17;;;;;;;4.69;100.00;94695.22;5107577;28;20700;-76
2023/01/22 05:40:29;;;;;;;5.03;2.83;;;;;;;4.78;100.00;94701.56;5102939;28;20202;-75
2023/01/22 05:42:56;;;;;;;3.88;2.60;;;;;;;4.83;100.00;94702.28;5102481;28;20262;-75
2023/01/22 05:45:24;;;;;;;4.07;2.55;;;;;;;4.93;100.00;94712.06;5111950;28;20214;-76
2023/01/22 05:47:52;;;;;;;5.07;2.63;;;;;;;5.00;100.00;94716.00;5111358;28;20653;-76
2023/01/22 05:50:19;;;;;;;6.18;2.47;;;;;;;4.94;100.00;94713.66;5111787;28;20745;-75
2023/01/22 05:52:46;;;;;;;4.50;2.65;;;;;;;5.00;100.00;94724.03;5111904;28;20201;-76
2023/01/22 05:55:13;;;;;;;5.60;3.33;;;;;;;4.99;100.00;94722.44;5098482;28;20270;-75
2023/01/22 05:57:40;;;;;;;4.35;2.83;;;;;;;4.67;100.00;94735.75;5111310;28;20202;-76
2023/01/22 06:00:08;;;;;;;7.13;2.88;;;;;;;4.62;100.00;94738.50;5111474;28;20206;-75
2023/01/22 06:02:36;;;;;;;6.13;2.95;;;;;;;4.70;100.00;94735.19;5111433;28;20254;-75
2023/01/22 06:05:04;;;;;;;6.65;3.08;;;;;;;4.79;100.00;94744.19;5110844;28;20201;-76
2023/01/22 06:07:31;;;;;;;6.95;3.30;;;;;;;4.88;100.00;94741.66;5111464;28;20242;-76
2023/01/22 06:09:57;;;;;;;10.48;3.33;;;;;;;4.92;100.00;94748.84;5111405;28;20250;-76
2023/01/22 06:12:24;;;;;;;7.57;4.57;;;;;;;7.10;100.00;94734.31;5103176;27;20198;-78
2023/01/22 06:14:53;;;;;;;9.27;5.28;;;;;;;8.48;100.00;94729.84;5105045;28;20205;-77
2023/01/22 06:17:20;;;;;;;11.18;5.47;;;;;;;8.67;100.00;94739.59;5110828;28;20398;-76
2023/01/22 06:19:48;;;;;;;11.50;5.85;;;;;;;9.24;100.00;94738.47;5110910;28;20275;-79
2023/01/22 06:22:15;;;;;;;8.82;5.03;;;;;;;8.21;94.51;94759.69;5110932;28;20274;-79
2023/01/22 06:24:41;;;;;;;5.85;3.38;;;;;;;7.42;96.92;94754.06;5110605;28;20702;-79
2023/01/22 06:27:08;;;;;;;8.88;4.22;;;;;;;6.80;98.33;94764.56;5108288;28;20206;-75
2023/01/22 06:29:35;;;;;;;7.30;3.95;;;;;;;6.37;98.62;94767.53;5100179;28;20251;-76
2023/01/22 06:32:02;;;;;;;6.55;4.15;;;;;;;5.91;99.53;94772.09;5110316;28;20225;-79
2023/01/22 06:34:29;;;;;;;6.57;3.88;;;;;;;5.86;100.00;94772.19;5110006;28;20226;-76
2023/01/22 06:36:57;;;;;;;9.30;4.88;;;;;;;5.84;100.00;94777.03;5110834;28;20247;-79
2023/01/22 06:39:23;;;;;;;9.15;4.60;;;;;;;6.00;100.00;94773.06;5109464;28;20255;-77
2023/01/22 06:41:50;;;;;;;10.38;4.82;;;;;;;6.00;100.00;94783.81;5110730;28;20270;-78
2023/01/22 06:44:17;;;;;;;10.57;5.38;;;;;;;6.00;100.00;94786.50;5110393;28;20270;-76
2023/01/22 06:46:45;;;;;;;11.50;5.00;;;;;;;6.13;100.00;94799.19;5108606;28;20696;-79
2023/01/22 06:49:13;;;;;;;8.63;5.00;;;;;;;6.14;100.00;94798.09;5109718;28;20235;-79
2023/01/22 06:51:40;;;;;;;9.90;5.43;;;;;;;6.20;100.00;94799.56;5109922;28;20795;-79
2023/01/22 06:54:10;;;;;;;12.68;5.40;;;;;;;6.17;100.00;94799.34;5109994;28;20198;-79
2023/01/22 06:56:37;;;;;;;16.55;6.30;;;;;;;6.23;100.00;94811.63;5109542;28;20254;-79
2023/01/22 06:59:04;;;;;;;12.07;6.18;;;;;;;6.16;99.70;94809.31;5110031;28;20286;-79
2023/01/22 07:01:31;;;;;;;14.05;5.93;;;;;;;6.11;100.00;94806.72;5112152;28;20201;-80
2023/01/22 07:03:57;;;;;;;19.95;8.98;;;;;;;6.16;100.00;94817.38;5109695;28;20217;-79
2023/01/22 07:06:24;;;;;;;13.60;7.47;;;;;;;6.09;100.00;94814.28;5108764;28;20334;-80
2023/01/22 07:08:51;;;;;;;13.73;7.35;;;;;;;6.12;100.00;94824.47;5109787;28;20352;-79
2023/01/22 07:11:19;;;;;;;18.45;7.93;;;;;;;6.18;100.00;94817.91;5109797;28;20209;-80
2023/01/22 07:13:46;;;;;;;17.20;8.20;;;;;;;6.25;100.00;94822.91;5109667;28;20254;-81
2023/01/22 07:16:12;;;;;;;15.55;7.22;;;;;;;6.28;100.00;94823.13;5110420;28;20198;-79
2023/01/22 07:18:39;;;;;;;15.18;7.07;;;;;;;6.25;100.00;94821.03;5109547;28;20278;-82
2023/01/22 07:21:06;;;;;;;12.18;6.68;;;;;;;6.16;100.00;94825.44;5109342;28;20687;-80
2023/01/22 07:23:33;;;;;;;14.68;7.20;;;;;;;6.33;100.00;94825.72;5109140;28;20202;-85
2023/01/22 07:26:01;;;;;;;16.77;6.82;;;;;;;6.55;100.00;94818.88;5109063;28;20202;-80
2023/01/22 07:28:30;;;;;;;17.83;9.20;;;;;;;6.78;100.00;94825.97;5109500;28;21018;-81
2023/01/22 07:30:56;;;;;;;18.52;8.20;;;;;;;6.84;100.00;94824.75;5109557;28;20196;-80
2023/01/22 07:33:23;;;;;;;13.50;7.57;;;;;;;6.85;100.00;94820.19;5108090;28;20942;-80
2023/01/22 07:35:55;;;;;;;17.90;8.35;;;;;;;7.22;100.00;94821.88;5109137;28;20239;-80
2023/01/22 07:38:22;;;;;;;12.50;7.82;;;;;;;7.37;100.00;94816.16;5109529;28;20234;-78
2023/01/22 07:40:49;;;;;;;13.57;7.65;;;;;;;7.58;100.00;94811.91;5108549;28;20967;-79
2023/01/22 07:43:16;;;;;;;15.98;8.35;;;;;;;7.62;100.00;94822.91;5108777;28;20194;-79
2023/01/22 07:45:44;;;;;;;15.40;9.05;;;;;;;7.66;99.73;94819.25;5109563;28;20693;-79
2023/01/22 07:48:11;;;;;;;16.95;8.38;;;;;;;7.71;98.71;94816.47;5109651;28;20206;-79
2023/01/22 07:50:39;;;;;;;21.92;8.52;;;;;;;7.95;97.65;94826.16;5099566;28;20202;-79
2023/01/22 07:53:06;;;;;;;18.27;8.40;;;;;;;8.12;96.82;94820.91;5097811;28;20250;-79
2023/01/22 07:55:33;;;;;;;14.32;7.90;;;;;;;8.19;96.10;94819.38;5110095;28;20236;-79
2023/01/22 07:58:02;;;;;;;14.45;8.20;;;;;;;8.19;95.26;94821.28;5110144;28;20311;-76
2023/01/22 08:01:04;;;;;;;15.05;7.63;;;;;;;8.29;95.17;94815.63;5109646;28;20233;-79
2023/01/22 08:03:33;;;;;;;14.07;7.65;;;;;;;8.43;94.51;94821.78;5108771;28;20814;-79
2023/01/22 08:06:00;;;;;;;18.60;8.65;;;;;;;8.38;94.40;94826.50;5101816;28;20297;-78
2023/01/22 08:08:27;;;;;;;18.67;8.10;;;;;;;8.09;94.61;94826.91;5102298;28;20201;-77
2023/01/22 08:10:58;;;;;;;21.10;7.97;;;;;;;7.88;96.26;94831.19;5107175;28;20198;-77
2023/01/22 08:13:25;;;;;;;19.30;8.35;;;;;;;7.98;96.55;94836.34;5107564;28;20698;-78
2023/01/22 08:15:53;;;;;;;17.83;8.50;;;;;;;8.16;96.60;94840.78;5107972;28;20234;-79
2023/01/22 08:18:21;;;;;;;17.30;8.70;;;;;;;8.06;95.21;94839.09;5105151;28;20197;-78
2023/01/22 08:20:53;;;;;;;14.30;6.88;;;;;;;8.14;94.74;94834.88;5103347;28;20232;-77
2023/01/22 08:23:20;;;;;;;17.17;8.73;;;;;;;7.93;96.38;94839.94;5107633;28;20197;-77
2023/01/22 08:25:47;;;;;;;18.83;8.55;;;;;;;8.07;96.83;94850.69;5107977;28;20673;-77
2023/01/22 08:28:14;;;;;;;15.63;8.18;;;;;;;7.94;97.31;94846.16;5107809;28;20201;-78
2023/01/22 08:30:40;;;;;;;15.45;7.95;;;;;;;7.81;95.60;94853.97;5108045;28;20680;-79
2023/01/22 08:33:07;;;;;;;16.08;8.32;;;;;;;7.77;95.76;94853.00;5106456;28;20208;-75
2023/01/22 08:35:34;;;;;;;18.30;9.25;;;;;;;8.03;96.18;94849.72;5103755;28;20235;-76
2023/01/22 08:38:02;;;;;;;13.85;7.75;;;;;;;8.19;94.34;94853.66;5097959;28;20209;-75
2023/01/22 08:40:29;;;;;;;11.98;6.65;;;;;;;8.25;94.36;94847.03;5107925;28;20229;-76
2023/01/22 08:42:56;;;;;;;16.65;8.80;;;;;;;8.15;93.94;94841.88;5107442;28;20189;-77
2023/01/22 08:45:23;;;;;;;17.15;8.13;;;;;;;8.10;94.41;94844.69;5107849;28;20206;-76
2023/01/22 08:47:50;;;;;;;11.80;5.03;;;;;;;8.17;94.70;94850.47;5096141;28;20231;-76
2023/01/22 08:50:17;;;;;;;16.45;9.15;;;;;;;8.21;95.35;94854.13;5094216;28;20297;-75
2023/01/22 08:52:44;;;;;;;15.25;7.93;;;;;;;8.25;94.26;94857.00;5107530;28;20194;-76
2023/01/22 08:55:12;;;;;;;16.58;9.05;;;;;;;8.03;94.67;94855.91;5093298;28;20213;-79
2023/01/22 08:57:39;;;;;;;24.80;10.07;;;;;;;8.11;95.95;94857.88;5103322;28;20201;-77
2023/01/22 09:00:08;;;;;;;16.42;8.88;;;;;;;8.21;95.93;94849.53;5091011;28;20242;-76
2023/01/22 09:02:35;;;;;;;18.02;10.15;;;;;;;8.28;95.42;94846.41;5106784;28;20277;-76
2023/01/22 09:05:01;;;;;;;20.77;10.95;;;;;;;8.57;95.79;94847.91;5106478;28;20660;-78
2023/01/22 09:07:28;;;;;;;17.48;10.35;;;;;;;8.84;94.14;94847.72;5102885;28;20198;-77
2023/01/22 09:09:55;;;;;;;22.40;9.25;;;;;;;8.81;92.98;94849.13;5092895;28;20216;-79
2023/01/22 09:12:23;;;;;;;11.40;7.03;;;;;;;8.60;92.75;94849.97;5106850;28;20213;-78
2023/01/22 09:14:50;;;;;;;19.60;8.93;;;;;;;8.42;93.63;94852.56;5106677;28;20202;-78
2023/01/22 09:17:16;;;;;;;18.15;9.18;;;;;;;8.50;94.42;94838.31;5108391;28;20312;-79
2023/01/22 09:19:43;;;;;;;17.92;9.25;;;;;;;8.41;94.32;94845.56;5110654;28;20229;-78
2023/01/22 09:22:10;;;;;;;13.27;7.18;;;;;;;8.40;94.66;94849.38;5110100;28;20201;-79
2023/01/22 09:24:37;;;;;;;17.42;8.30;;;;;;;8.53;94.97;94853.91;5110623;28;20202;-82
2023/01/22 09:27:03;;;;;;;23.63;11.30;;;;;;;8.37;94.96;94833.78;5110701;28;20197;-78
2023/01/22 09:29:31;;;;;;;21.35;7.72;;;;;;;8.68;94.49;94854.63;5110938;28;20206;-78
2023/01/22 09:31:58;;;;;;;19.45;8.90;;;;;;;8.72;93.59;94847.50;5110598;28;20213;-78
2023/01/22 09:34:25;;;;;;;11.23;5.68;;;;;;;8.96;92.62;94845.22;5110187;28;20233;-77
2023/01/22 09:36:52;;;;;;;12.18;7.55;;;;;;;9.07;92.16;94841.13;5096197;28;20206;-77
2023/01/22 09:39:18;;;;;;;12.52;6.82;;;;;;;9.23;91.97;94839.59;5097892;28;20238;-80
2023/01/22 09:41:49;;;;;;;9.80;6.22;;;;;;;9.29;90.41;94831.34;5110356;28;20682;-79
2023/01/22 09:44:20;;;;;;;10.10;6.00;;;;;;;9.53;89.72;94845.25;5110370;28;20810;-77
2023/01/22 09:46:51;;;;;;;12.27;6.47;;;;;;;9.75;87.94;94839.69;5110327;28;20246;-76
2023/01/22 09:49:21;;;;;;;11.13;6.28;;;;;;;9.87;86.81;94820.94;5101003;28;20525;-77
2023/01/22 09:51:53;;;;;;;14.13;6.90;;;;;;;10.07;85.58;94832.25;5108726;28;20644;-79
2023/01/22 09:54:20;;;;;;;14.35;5.25;;;;;;;10.16;84.02;94833.03;5109944;28;20246;-79
2023/01/22 09:56:49;;;;;;;14.70;4.45;;;;;;;10.22;82.54;94839.91;5110003;28;20255;-78
2023/01/22 09:59:20;;;;;;;10.32;6.18;;;;;;;10.40;81.94;94833.34;5096201;28;20718;-78
2023/01/22 10:01:53;;;;;;;10.18;5.22;;;;;;;10.41;82.07;94834.94;5096221;28;20235;-80
2023/01/22 10:04:29;;;;;;;11.32;6.80;;;;;;;10.23;83.96;94834.19;5109768;28;20202;-79
2023/01/22 10:06:58;;;;;;;13.57;7.88;;;;;;;10.28;84.89;94835.91;5109682;28;20672;-79
2023/01/22 10:09:30;;;;;;;16.52;8.35;;;;;;;10.06;85.22;94834.16;5109350;28;20629;-79
2023/01/22 10:11:59;;;;;;;12.35;7.57;;;;;;;9.83;86.46;94841.63;5109058;28;20205;-79
2023/01/22 10:14:29;;;;;;;17.98;9.05;;;;;;;9.71;87.58;94833.31;5109186;28;20247;-78
2023/01/22 10:17:00;;;;;;;15.57;8.05;;;;;;;9.87;87.38;94830.94;5109464;28;20210;-78
2023/01/22 10:19:32;;;;;;;14.55;7.45;;;;;;;9.95;86.02;94836.38;5109482;28;20218;-79
2023/01/22 10:22:01;;;;;;;11.30;5.70;;;;;;;9.87;85.19;94837.16;5109521;28;20672;-78
2023/01/22 10:24:29;;;;;;;17.25;7.80;;;;;;;9.93;85.26;94830.50;5109783;28;20270;-77
2023/01/22 10:26:58;;;;;;;8.68;5.05;;;;;;;9.92;84.82;94831.59;5109605;28;20228;-80
2023/01/22 10:29:30;;;;;;;11.07;6.43;;;;;;;10.13;84.75;94833.66;5096325;28;20747;-79
2023/01/22 10:32:00;;;;;;;9.23;5.15;;;;;;;10.06;84.11;94833.34;5109710;28;20219;-78
2023/01/22 10:34:31;;;;;;;16.73;5.63;;;;;;;10.04;84.37;94824.75;5109515;28;20290;-79
2023/01/22 10:37:01;;;;;;;5.97;3.45;;;;;;;10.14;83.63;94835.25;5093347;28;20238;-78
2023/01/22 10:39:28;;;;;;;9.05;3.70;;;;;;;10.13;83.87;94833.66;5089054;28;20312;-79
2023/01/22 10:42:01;;;;;;;7.88;4.53;;;;;;;10.10;83.49;94834.31;5104742;28;20282;-80
2023/01/22 10:44:28;;;;;;;9.40;4.82;;;;;;;10.15;83.68;94831.44;5108601;28;20707;-78
2023/01/22 10:47:06;;;;;;;8.25;4.13;;;;;;;10.14;83.78;94835.25;5108151;28;21018;-79
2023/01/22 10:49:34;;;;;;;9.48;4.90;;;;;;;10.25;83.84;94825.75;5107674;28;20213;-79
2023/01/22 10:52:07;;;;;;;11.18;6.13;;;;;;;10.62;83.44;94827.75;5096723;28;20205;-78
2023/01/22 10:54:38;;;;;;;12.10;5.70;;;;;;;11.04;81.74;94831.44;5102693;28;20201;-80
2023/01/22 10:57:20;;;;;;;10.27;5.00;;;;;;;11.09;80.79;94827.72;5111263;28;20189;-79
2023/01/22 10:59:49;;;;;;;8.85;4.80;;;;;;;11.49;79.65;94827.38;5110775;28;20760;-76
2023/01/22 11:02:21;;;;;;;5.00;3.10;;;;;;;11.16;78.29;94833.44;5110776;28;20260;-77
2023/01/22 11:04:50;;;;;;;8.23;3.67;;;;;;;11.13;79.54;94834.09;5110467;28;20346;-80
2023/01/22 11:07:20;;;;;;;9.25;3.20;;;;;;;11.09;79.35;94833.16;5111008;28;20625;-80
2023/01/22 11:09:52;;;;;;;4.95;3.08;;;;;;;11.25;78.93;94828.78;5110405;28;20275;-80
2023/01/22 11:12:23;;;;;;;6.45;2.90;;;;;;;11.10;76.97;94829.31;5109540;28;20197;-78
2023/01/22 11:15:00;;;;;;;2.58;1.90;;;;;;;11.06;77.92;94836.53;5110766;28;20198;-80
2023/01/22 11:17:42;;;;;;;4.25;2.20;;;;;;;11.01;77.67;94823.16;5110407;28;20716;-78
2023/01/22 11:20:18;;;;;;;4.93;2.72;;;;;;;11.29;77.36;94816.16;5109498;28;20291;-78
2023/01/22 11:22:49;;;;;;;2.85;1.75;;;;;;;11.51;75.68;94825.13;5109981;28;20201;-79
2023/01/22 11:25:16;;;;;;;3.17;1.60;;;;;;;11.47;75.09;94830.44;5110009;28;20197;-80
2023/01/22 11:27:57;;;;;;;3.65;1.40;;;;;;;11.64;73.99;94813.22;5109956;28;20263;-78
2023/01/22 11:30:50;;;;;;;2.50;1.60;;;;;;;11.62;73.05;94824.41;5110525;28;20201;-81
2023/01/22 11:33:30;;;;;;;4.80;2.10;;;;;;;11.76;73.21;94807.91;5110150;28;20197;-80
2023/01/22 11:36:05;;;;;;;2.05;1.27;;;;;;;11.62;73.37;94813.56;5098512;28;20282;-76
2023/01/22 11:38:41;;;;;;;5.93;2.17;;;;;;;11.56;74.56;94820.31;5109938;28;20258;-77
2023/01/22 11:41:26;;;;;;;3.80;1.58;;;;;;;11.54;72.39;94822.56;5109123;28;20240;-78
2023/01/22 11:44:14;;;;;;;1.38;1.05;;;;;;;11.21;72.18;94827.81;5095853;28;20248;-77
2023/01/22 11:47:06;;;;;;;5.45;2.15;;;;;;;11.16;74.26;94828.03;5109467;28;20197;-77
2023/01/22 11:49:44;;;;;;;7.32;1.77;;;;;;;11.25;73.81;94826.06;5109731;28;20205;-77